createdAt,value
2023-11-25T00:02:27.936Z,93.2
2023-11-25T00:07:32.458Z,93.3
2023-11-25T00:12:35.964Z,93.5
2023-11-25T00:17:40.579Z,93.7
2023-11-25T00:22:45.043Z,93.6
2023-11-25T00:27:48.612Z,94.2
2023-11-25T00:32:53.175Z,95
2023-11-25T00:37:57.694Z,95
2023-11-25T00:43:01.236Z,95
2023-11-25T00:48:05.816Z,94.9
2023-11-25T00:53:10.297Z,95.1
2023-11-25T00:58:13.930Z,95.2
2023-11-25T01:03:18.466Z,95.3
2023-11-25T01:08:22.917Z,95
2023-11-25T01:13:27.498Z,94.5
2023-11-25T01:18:30.988Z,95.1
2023-11-25T01:23:35.516Z,95.2
2023-11-25T01:28:40.127Z,95
2023-11-25T01:33:43.679Z,94.9
2023-11-25T01:38:48.164Z,95.2
2023-11-25T01:43:52.677Z,94.6
2023-11-25T01:48:56.217Z,94.9
2023-11-25T01:54:00.785Z,95.4
2023-11-25T01:59:05.333Z,94.8
2023-11-25T02:04:09.090Z,95.2
2023-11-25T02:09:13.375Z,95
2023-11-25T02:14:17.972Z,95.2
2023-11-25T02:19:22.574Z,95.8
2023-11-25T02:24:26.018Z,95.8
2023-11-25T02:29:30.558Z,95.8
2023-11-25T02:34:35.119Z,95.8
2023-11-25T02:39:38.636Z,95.3
2023-11-25T02:44:43.184Z,95.5
2023-11-25T02:49:47.797Z,95.8
2023-11-25T02:54:51.253Z,96.2
2023-11-25T02:59:55.781Z,96.1
2023-11-25T03:05:00.313Z,96
2023-11-25T03:10:03.858Z,95.6
2023-11-25T03:15:08.413Z,96.1
2023-11-25T03:20:12.938Z,95.8
2023-11-25T03:25:17.536Z,95.7
2023-11-25T03:30:21.032Z,95.4
2023-11-25T03:35:24.592Z,95.3
2023-11-25T03:40:29.149Z,94.9
2023-11-25T03:45:33.676Z,95
2023-11-25T03:50:37.247Z,94.8
2023-11-25T03:55:41.726Z,94.7
2023-11-25T04:00:46.240Z,95.3
2023-11-25T04:05:50.801Z,95.2
2023-11-25T04:10:54.568Z,95.1
2023-11-25T04:15:58.877Z,94
2023-11-25T04:21:03.558Z,94
2023-11-25T04:26:07.023Z,94.4
2023-11-25T04:31:11.527Z,94.1
2023-11-25T04:36:19.354Z,93.5
2023-11-25T04:41:19.594Z,93.7
2023-11-25T04:46:24.139Z,94.2
2023-11-25T04:56:32.198Z,94.3
2023-11-25T05:01:36.832Z,94.8
2023-11-25T05:06:44.056Z,94.9
2023-11-25T05:11:45.792Z,94.8
2023-11-25T05:16:49.645Z,95
2023-11-25T05:21:53.897Z,94.9
2023-11-25T05:26:58.496Z,94.8
2023-11-25T05:32:02.162Z,95.3
2023-11-25T05:37:06.591Z,95.4
2023-11-25T05:42:11.074Z,95.1
2023-11-25T05:47:14.652Z,95.2
2023-11-25T05:52:19.196Z,95.4
2023-11-25T05:57:23.692Z,94.7
2023-11-25T06:02:27.357Z,95
2023-11-25T06:07:31.818Z,94.5
2023-11-25T06:12:36.312Z,95
2023-11-25T06:17:41.023Z,94.3
2023-11-25T06:22:44.490Z,94.8
2023-11-25T06:27:48.916Z,94.4
2023-11-25T06:32:53.485Z,94.5
2023-11-25T06:37:57.150Z,94.8
2023-11-25T06:43:01.909Z,94.4
2023-11-25T06:48:06.123Z,94.4
2023-11-25T06:53:09.673Z,94.3
2023-11-25T06:58:14.264Z,93.9
2023-11-25T07:03:18.724Z,93.8
2023-11-25T07:08:22.256Z,93.3
2023-11-25T07:13:26.861Z,93.8
2023-11-25T07:18:31.369Z,93.5
2023-11-25T07:23:35.850Z,93.4
2023-11-25T07:28:39.453Z,94
2023-11-25T07:33:43.977Z,94
2023-11-25T07:38:48.501Z,94.1
2023-11-25T07:43:52.087Z,94.8
2023-11-25T07:48:55.612Z,94.9
2023-11-25T07:54:00.171Z,94.8
2023-11-25T07:59:04.711Z,95.1
2023-11-25T08:04:09.302Z,95.1
2023-11-25T08:09:12.723Z,95.3
2023-11-25T08:14:17.283Z,95.3
2023-11-25T08:19:21.829Z,95.1
2023-11-25T08:24:25.357Z,95.1
2023-11-25T08:29:29.960Z,94.8
2023-11-25T08:34:34.475Z,94.9
2023-11-25T08:39:37.969Z,95.4
2023-11-25T08:44:42.499Z,95
2023-11-25T08:49:47.033Z,95.2
2023-11-25T08:54:50.624Z,95.7
2023-11-25T09:05:06.950Z,94.9
2023-11-25T09:10:04.193Z,94.8
2023-11-25T09:15:07.745Z,95.2
2023-11-25T09:20:12.270Z,94.9
2023-11-25T09:25:16.867Z,94.9
2023-11-25T09:30:20.374Z,95.1
2023-11-25T09:35:24.913Z,95.3
2023-11-25T09:40:29.498Z,95.6
2023-11-25T09:45:33.043Z,95.8
2023-11-25T09:50:37.533Z,95.5
2023-11-25T09:55:42.057Z,95.6
2023-11-25T10:00:45.584Z,95.6
2023-11-25T10:10:54.766Z,95.5
2023-11-25T10:21:02.728Z,95.6
2023-11-25T10:26:07.333Z,95.3
2023-11-25T10:31:11.803Z,95.4
2023-11-25T10:36:15.361Z,95.6
2023-11-25T10:41:19.870Z,95.5
2023-11-25T10:46:24.484Z,95.2
2023-11-25T10:51:27.993Z,95.3
2023-11-25T10:56:32.537Z,95.2
2023-11-25T11:01:37.180Z,95.3
2023-11-25T11:06:40.618Z,95.4
2023-11-25T11:11:45.126Z,94.9
2023-11-25T11:16:49.669Z,94.8
2023-11-25T11:21:54.333Z,94.4
2023-11-25T11:26:57.747Z,94.5
2023-11-25T11:32:02.816Z,94.5
2023-11-25T11:37:06.838Z,94.5
2023-11-25T11:42:10.397Z,93.9
2023-11-25T11:47:14.916Z,93.9
2023-11-25T11:52:19.435Z,93.2
2023-11-25T11:57:22.974Z,93.1
2023-11-25T12:02:27.629Z,92.7
2023-11-25T12:07:31.217Z,92.2
2023-11-25T12:12:35.598Z,92.4
2023-11-25T12:22:43.728Z,92.1
2023-11-25T12:27:48.259Z,91.9
2023-11-25T12:32:52.880Z,92.3
2023-11-25T12:38:07.286Z,92.7
2023-11-25T12:43:00.858Z,93.4
2023-11-25T12:48:05.444Z,94.3
2023-11-25T12:53:09.001Z,94
2023-11-25T12:58:13.795Z,93.9
2023-11-25T13:03:18.126Z,93.9
2023-11-25T13:08:22.541Z,93.4
2023-11-25T13:13:28.148Z,93.4
2023-11-25T13:18:30.678Z,93.4
2023-11-25T13:23:35.142Z,93.4
2023-11-25T13:28:38.760Z,93.4
2023-11-25T13:33:43.516Z,93.5
2023-11-25T13:38:47.782Z,93.2
2023-11-25T13:43:51.462Z,93.3
2023-11-25T13:48:55.880Z,93.2
2023-11-25T13:54:00.375Z,93.1
2023-11-25T13:59:04.014Z,92.9
2023-11-25T14:04:08.518Z,92.2
2023-11-25T14:09:12.989Z,91.8
2023-11-25T14:14:17.632Z,92.2
2023-11-25T14:19:21.091Z,92.2
2023-11-25T14:24:25.630Z,92.5
2023-11-25T14:34:33.782Z,94
2023-11-25T14:39:44.439Z,93.2
2023-11-25T14:44:42.799Z,93
2023-11-25T14:49:46.344Z,93.9
2023-11-25T14:54:50.868Z,94
2023-11-25T14:59:55.400Z,94.9
2023-11-25T15:04:59.014Z,94.8
2023-11-25T15:10:03.477Z,94.4
2023-11-25T15:15:08.005Z,94.8
2023-11-25T15:20:12.572Z,94.3
2023-11-25T15:25:16.156Z,94.1
2023-11-25T15:30:20.668Z,94.4
2023-11-25T15:35:25.183Z,94.3
2023-11-25T15:40:28.774Z,94.8
2023-11-25T15:45:33.257Z,95.1
2023-11-25T15:50:37.779Z,95.4
2023-11-25T15:55:41.343Z,95.3
2023-11-25T16:00:46.348Z,95.3
2023-11-25T16:05:50.390Z,95
2023-11-25T16:10:53.992Z,95
2023-11-25T16:21:02.045Z,96.1
2023-11-25T16:26:06.655Z,96.2
2023-11-25T16:31:11.664Z,96.3
2023-11-25T16:36:14.645Z,96.3
2023-11-25T16:41:19.178Z,95.8
2023-11-25T16:46:23.751Z,95.8
2023-11-25T16:51:27.308Z,95.1
2023-11-25T16:56:31.796Z,94.6
2023-11-25T17:01:36.423Z,94.5
2023-11-25T17:06:40.866Z,95
2023-11-25T17:11:44.416Z,94.9
2023-11-25T17:16:48.963Z,95.2
2023-11-25T17:21:53.508Z,94.8
2023-11-25T17:26:57.072Z,94.5
2023-11-25T17:32:01.612Z,94.4
2023-11-25T17:37:06.190Z,93.6
2023-11-25T17:42:09.706Z,94.5
2023-11-25T17:47:14.252Z,94
2023-11-25T17:52:18.758Z,94.3
2023-11-25T17:57:22.286Z,94.8
2023-11-25T18:02:26.947Z,94.6
2023-11-25T18:07:31.359Z,93.2
2023-11-25T18:12:35.875Z,92.6
2023-11-25T18:17:39.560Z,92.9
2023-11-25T18:22:44.014Z,92.3
2023-11-25T18:27:48.577Z,92.2
2023-11-25T18:32:52.097Z,91.2
2023-11-25T18:37:56.716Z,91.3
2023-11-25T18:43:01.365Z,91.3
2023-11-25T18:48:04.683Z,91.2
2023-11-25T18:53:09.302Z,91
2023-11-25T18:58:13.732Z,91.3
2023-11-25T19:03:17.329Z,91.5
2023-11-25T19:08:21.868Z,91.2
2023-11-25T19:13:26.357Z,91
2023-11-25T19:18:30.934Z,90.7
2023-11-25T19:23:34.535Z,91.4
2023-11-25T19:28:39.043Z,91.1
2023-11-25T19:33:46.086Z,91.2
2023-11-25T19:38:47.067Z,91.1
2023-11-25T19:48:56.118Z,91.4
2023-11-25T19:53:59.702Z,92.5
2023-11-25T19:59:04.247Z,92.5
2023-11-25T20:04:08.835Z,92.6
2023-11-25T20:09:12.373Z,92.7
2023-11-25T20:14:16.910Z,92.9
2023-11-25T20:19:21.458Z,92.7
2023-11-25T20:24:25.993Z,93.2
2023-11-25T20:29:29.565Z,92.8
2023-11-25T20:34:33.099Z,93.1
2023-11-25T20:39:37.645Z,93.3
2023-11-25T20:44:42.138Z,94
2023-11-25T20:49:45.730Z,94
2023-11-25T20:54:50.262Z,93.8
2023-11-25T20:59:54.791Z,93.9
2023-11-25T21:04:59.345Z,94
2023-11-25T21:10:02.883Z,92.7
2023-11-25T21:15:07.412Z,93.5
2023-11-25T21:20:11.995Z,92.5
2023-11-25T21:25:15.821Z,92.6
2023-11-25T21:30:20.041Z,92.8
2023-11-25T21:35:24.589Z,93
2023-11-25T21:40:28.080Z,93.5
2023-11-25T21:45:32.622Z,92.6
2023-11-25T21:50:37.172Z,92.9
2023-11-25T21:55:40.739Z,92
2023-11-25T22:00:45.238Z,92.1
2023-11-25T22:05:49.796Z,92.1
2023-11-25T22:10:54.439Z,92.1
2023-11-25T22:15:57.941Z,92
2023-11-25T22:21:02.388Z,92.4
2023-11-25T22:26:07.028Z,93.5
2023-11-25T22:31:10.466Z,93.2
2023-11-25T22:36:15.000Z,93.5
2023-11-25T22:41:19.604Z,93.9
2023-11-25T22:46:23.179Z,94
2023-11-25T22:51:27.668Z,93.6
2023-11-25T22:56:32.198Z,94
2023-11-25T23:01:35.739Z,94.4
2023-11-25T23:06:40.266Z,94.5
2023-11-25T23:11:44.790Z,93.8
2023-11-25T23:16:49.329Z,93.4
2023-11-25T23:21:52.896Z,92.7
2023-11-25T23:26:57.416Z,93.2
2023-11-25T23:32:01.985Z,93.7
2023-11-25T23:37:05.469Z,94.8
2023-11-25T23:42:10.051Z,94.8
2023-11-25T23:47:14.599Z,95.5
2023-11-25T23:52:18.104Z,95.4
2023-11-25T23:57:22.617Z,95.4
